Time;durP1;ratioP1;P1;durP2;ratioP2;P2;SDS_P1;SDS_P2;PMS_P1;PMS_P2;Temp;Humidity;BMP_temperature;BMP_pressure;BME280_temperature;BME280_humidity;BME280_pressure;Samples;Min_cycle;Max_cycle;Signal;HPM_P1;HPM_P2
2021/04/18 00:05:28;;;;;;;13.07;5.50;;;;;;;5.91;86.72;100762.31;20729102;28;20398;-71
2021/04/18 00:15:30;;;;;;;10.23;5.68;;;;;;;5.38;91.66;100756.03;20730695;28;20045;-69
2021/04/18 00:25:32;;;;;;;9.68;5.60;;;;;;;5.44;92.37;100749.78;20730033;28;20045;-70
2021/04/18 00:35:33;;;;;;;11.20;5.65;;;;;;;5.36;93.64;100742.22;20731424;28;20050;-69
2021/04/18 00:45:34;;;;;;;12.18;5.90;;;;;;;5.29;93.36;100730.28;20729430;28;20046;-70
2021/04/18 00:55:43;;;;;;;11.10;5.60;;;;;;;5.25;93.74;100725.22;20728923;28;20046;-70
2021/04/18 01:05:44;;;;;;;10.48;5.13;;;;;;;5.21;93.69;100721.88;20727466;28;20097;-70
2021/04/18 01:15:45;;;;;;;11.15;5.78;;;;;;;5.27;94.26;100718.25;20718043;28;20466;-70
2021/04/18 01:25:46;;;;;;;10.98;5.07;;;;;;;5.08;93.65;100710.97;20744008;28;20054;-70
2021/04/18 01:35:48;;;;;;;13.45;5.30;;;;;;;5.09;93.46;100701.44;20742572;28;21442;-70
2021/04/18 01:45:50;;;;;;;11.10;5.85;;;;;;;5.22;92.83;100700.22;20742346;28;20554;-70
2021/04/18 01:55:51;;;;;;;10.63;6.07;;;;;;;5.10;94.48;100704.00;20741513;28;20042;-69
2021/04/18 02:05:52;;;;;;;10.48;6.00;;;;;;;5.12;94.81;100701.38;20739701;28;20517;-70
2021/04/18 02:15:53;;;;;;;11.70;6.03;;;;;;;5.14;93.95;100692.63;20739601;28;20042;-70
2021/04/18 02:25:54;;;;;;;10.57;5.53;;;;;;;5.10;93.29;100703.16;20739318;28;20041;-70
2021/04/18 02:35:54;;;;;;;11.52;6.03;;;;;;;5.13;94.88;100690.94;20741203;28;20064;-69
2021/04/18 02:45:55;;;;;;;13.02;6.00;;;;;;;5.18;93.94;100691.66;20737315;28;20041;-70
2021/04/18 02:55:57;;;;;;;13.15;6.72;;;;;;;5.23;93.51;100688.09;20735665;28;20041;-70
2021/04/18 03:05:58;;;;;;;11.40;6.43;;;;;;;5.18;92.68;100682.19;20735130;28;20055;-70
2021/04/18 03:15:59;;;;;;;12.80;5.38;;;;;;;5.13;92.79;100677.09;20731823;28;20561;-70
2021/04/18 03:26:00;;;;;;;13.00;6.22;;;;;;;5.09;94.27;100676.34;20734781;28;20073;-70
2021/04/18 03:36:01;;;;;;;11.93;5.80;;;;;;;5.12;95.49;100684.06;20733517;28;20046;-70
2021/04/18 03:46:02;;;;;;;13.32;6.45;;;;;;;5.12;93.68;100684.06;20733256;28;20055;-71
2021/04/18 03:56:04;;;;;;;13.80;6.88;;;;;;;5.27;92.76;100674.16;20752162;28;20038;-70
2021/04/18 04:06:05;;;;;;;14.30;6.85;;;;;;;5.21;94.92;100674.31;20754333;28;20092;-70
2021/04/18 04:16:06;;;;;;;13.88;6.78;;;;;;;5.14;95.05;100674.47;20731164;28;20049;-69
2021/04/18 04:26:08;;;;;;;10.73;5.35;;;;;;;5.15;95.67;100686.56;20731260;28;20049;-70
2021/04/18 04:36:09;;;;;;;16.50;7.63;;;;;;;5.25;94.05;100691.50;20728840;28;20049;-70
2021/04/18 04:46:10;;;;;;;13.90;7.50;;;;;;;5.23;93.31;100683.78;20732130;28;20766;-69
2021/04/18 04:56:11;;;;;;;12.60;6.82;;;;;;;5.21;93.81;100684.69;20738887;28;20060;-69
2021/04/18 05:06:12;;;;;;;46.50;31.52;;;;;;;5.22;93.06;100696.78;20744811;28;20038;-69
2021/04/18 05:16:13;;;;;;;28.30;17.13;;;;;;;5.28;94.75;100696.63;20744209;28;20173;-70
2021/04/18 05:26:16;;;;;;;16.98;9.50;;;;;;;5.46;94.03;100703.88;20742340;28;20075;-70
2021/04/18 05:36:17;;;;;;;18.33;8.00;;;;;;;5.63;93.32;100703.41;20741685;28;20056;-69
2021/04/18 05:46:18;;;;;;;16.60;7.97;;;;;;;5.77;92.09;100717.69;20741081;28;20050;-70
2021/04/18 05:56:19;;;;;;;13.18;7.68;;;;;;;5.98;91.43;100717.06;20741253;28;20054;-69
2021/04/18 06:06:25;;;;;;;12.93;7.68;;;;;;;6.32;91.73;100716.00;20739071;28;20520;-69
2021/04/18 06:16:26;;;;;;;15.38;8.02;;;;;;;6.55;90.56;100721.34;20739392;28;20046;-69
2021/04/18 06:26:27;;;;;;;13.45;7.85;;;;;;;6.75;88.55;100726.75;20734820;28;20124;-69
2021/04/18 06:36:28;;;;;;;17.23;9.07;;;;;;;6.90;84.03;100724.53;20734560;28;20045;-69
2021/04/18 06:46:32;;;;;;;13.63;8.10;;;;;;;7.08;82.05;100729.06;20736140;28;20041;-68
2021/04/18 06:56:33;;;;;;;14.15;8.18;;;;;;;7.32;81.91;100736.03;20741036;28;20038;-69
2021/04/18 07:06:43;;;;;;;14.60;8.10;;;;;;;7.60;78.28;100728.06;20728250;28;20493;-69
2021/04/18 07:16:44;;;;;;;14.57;7.53;;;;;;;8.16;75.94;100718.13;20740067;28;20097;-69
2021/04/18 07:26:57;;;;;;;11.27;6.15;;;;;;;8.26;68.19;100719.44;20742371;28;20053;-68
2021/04/18 07:37:09;;;;;;;12.02;5.32;;;;;;;8.55;64.56;100721.75;20739178;28;20034;-68
2021/04/18 07:47:10;;;;;;;10.93;5.88;;;;;;;8.79;67.54;100722.50;20739129;28;20042;-69
2021/04/18 07:57:11;;;;;;;11.68;6.10;;;;;;;8.51;66.15;100720.19;20736832;28;20088;-69
2021/04/18 08:07:12;;;;;;;11.75;6.68;;;;;;;8.62;66.31;100714.53;20736808;28;20046;-66
2021/04/18 08:17:19;;;;;;;13.10;6.20;;;;;;;9.10;66.34;100727.28;20737141;28;20042;-67
2021/04/18 08:27:20;;;;;;;11.35;6.13;;;;;;;9.08;63.14;100721.28;20737727;28;20482;-69
2021/04/18 08:37:21;;;;;;;11.75;6.15;;;;;;;8.74;62.44;100736.66;20732919;28;20578;-70
2021/04/18 08:47:26;;;;;;;11.52;5.85;;;;;;;9.36;61.00;100727.00;20739639;28;20049;-68
2021/04/18 08:57:29;;;;;;;;;;;;;;;9.57;61.24;100734.81;20735249;28;20049;-69
2021/04/18 09:07:34;;;;;;;11.68;5.95;;;;;;;9.12;61.54;100730.69;20734825;28;19972;-70
2021/04/18 09:17:37;;;;;;;14.03;6.60;;;;;;;9.89;62.80;100726.38;20734512;28;20058;-70
2021/04/18 09:27:44;;;;;;;11.68;5.80;;;;;;;10.05;62.95;100735.19;20736756;28;20457;-68
2021/04/18 09:38:07;;;;;;;12.32;6.47;;;;;;;10.21;59.91;100728.31;20752026;28;20042;-70
2021/04/18 09:48:12;;;;;;;13.60;6.85;;;;;;;11.00;58.01;100724.44;20770082;28;20462;-70
2021/04/18 09:58:25;;;;;;;13.80;6.32;;;;;;;11.34;55.83;100733.16;20745761;28;20049;-70
2021/04/18 10:08:32;;;;;;;14.90;7.93;;;;;;;10.70;54.95;100725.97;20745500;28;20566;-70
2021/04/18 10:18:34;;;;;;;13.98;6.85;;;;;;;11.22;57.15;100723.34;20745406;28;20065;-70
2021/04/18 10:28:36;;;;;;;13.90;8.15;;;;;;;11.54;55.42;100723.34;20740779;28;20054;-70
2021/04/18 10:38:37;;;;;;;14.70;7.60;;;;;;;10.75;56.98;100729.22;20740727;28;20498;-70
2021/04/18 10:48:39;;;;;;;13.93;7.15;;;;;;;11.19;57.89;100718.25;20735765;28;20129;-70
2021/04/18 10:58:40;;;;;;;14.50;7.35;;;;;;;12.03;55.34;100710.25;20734686;28;20068;-70
2021/04/18 11:08:41;;;;;;;13.75;8.18;;;;;;;12.06;53.44;100702.19;20736855;28;20041;-70
2021/04/18 11:18:43;;;;;;;17.00;7.45;;;;;;;11.82;54.68;100700.91;20737533;28;20049;-70
2021/04/18 11:28:47;;;;;;;16.35;9.00;;;;;;;12.24;53.51;100689.84;20736124;28;20494;-69
2021/04/18 11:38:48;;;;;;;15.80;8.13;;;;;;;11.91;53.68;100690.78;20736052;28;20069;-70
2021/04/18 11:49:03;;;;;;;14.48;8.23;;;;;;;12.02;53.51;100684.09;20738644;28;20128;-69
2021/04/18 11:59:05;;;;;;;17.20;9.48;;;;;;;12.06;52.23;100685.59;20736538;28;20470;-70
2021/04/18 12:09:06;;;;;;;16.38;9.50;;;;;;;12.80;52.57;100684.75;20735877;28;20037;-70
2021/04/18 12:19:07;;;;;;;16.38;8.52;;;;;;;13.61;49.56;100672.00;20734928;28;20044;-70
2021/04/18 12:29:08;;;;;;;16.65;9.20;;;;;;;13.91;48.96;100677.13;20734776;28;20045;-70
2021/04/18 12:39:09;;;;;;;17.92;9.63;;;;;;;13.59;50.08;100674.72;20734713;28;20046;-70
2021/04/18 12:49:10;;;;;;;17.38;9.70;;;;;;;13.58;48.95;100654.63;20735234;28;20053;-70
2021/04/18 12:59:11;;;;;;;16.98;10.27;;;;;;;13.81;49.56;100654.97;20736708;28;20052;-70
2021/04/18 13:09:12;;;;;;;20.60;11.30;;;;;;;13.57;49.75;100666.06;20734245;28;20042;-70
2021/04/18 13:19:13;;;;;;;16.88;10.02;;;;;;;13.15;53.03;100650.34;20745940;28;20050;-70
2021/04/18 13:29:14;;;;;;;25.83;12.68;;;;;;;12.88;50.73;100650.16;20749173;28;20041;-70
2021/04/18 13:39:15;;;;;;;24.42;13.73;;;;;;;12.96;50.49;100652.31;20747184;28;20120;-70
2021/04/18 13:49:16;;;;;;;22.90;13.95;;;;;;;12.50;52.17;100634.03;20748189;28;20042;-70
2021/04/18 13:59:17;;;;;;;23.85;14.38;;;;;;;12.82;53.20;100630.38;20746951;28;20038;-70
2021/04/18 14:09:18;;;;;;;20.48;12.30;;;;;;;13.32;52.31;100623.84;20745820;28;20054;-70
2021/04/18 14:19:19;;;;;;;25.27;15.50;;;;;;;12.65;54.31;100627.03;20745613;28;20053;-70
2021/04/18 14:29:20;;;;;;;24.00;15.18;;;;;;;12.18;55.92;100624.56;20738387;28;20050;-69
2021/04/18 14:39:25;;;;;;;26.00;15.55;;;;;;;11.96;58.04;100609.19;20730967;28;20069;-69
2021/04/18 14:49:26;;;;;;;20.93;13.57;;;;;;;11.76;59.99;100615.56;20730760;28;20042;-69
2021/04/18 14:59:27;;;;;;;18.65;12.18;;;;;;;11.83;60.62;100603.81;20728133;28;20038;-69
2021/04/18 15:09:28;;;;;;;18.45;12.25;;;;;;;12.00;60.67;100605.47;20725857;28;20057;-69
2021/04/18 15:19:29;;;;;;;18.63;12.10;;;;;;;12.61;58.60;100600.13;20725834;28;20049;-69
2021/04/18 15:29:30;;;;;;;19.20;12.27;;;;;;;12.45;58.87;100599.31;20722343;28;21026;-70
2021/04/18 15:39:33;;;;;;;15.18;10.50;;;;;;;11.79;60.64;100604.88;20714447;28;20109;-70
2021/04/18 15:49:34;;;;;;;15.88;10.38;;;;;;;11.77;61.00;100601.53;20718123;28;20050;-70
2021/04/18 15:59:36;;;;;;;17.13;11.48;;;;;;;11.83;61.45;100606.44;20735762;28;20073;-70
2021/04/18 16:09:37;;;;;;;16.13;9.82;;;;;;;11.61;61.93;100605.03;20726458;28;20100;-70
2021/04/18 16:19:39;;;;;;;20.67;12.65;;;;;;;11.65;60.72;100611.78;20726480;28;20560;-70
2021/04/18 16:29:40;;;;;;;19.73;12.55;;;;;;;11.72;61.95;100611.38;20733459;28;20058;-70
2021/04/18 16:39:42;;;;;;;18.65;10.23;;;;;;;11.60;62.78;100622.53;20734737;28;20066;-69
2021/04/18 16:49:43;;;;;;;17.15;9.95;;;;;;;11.49;63.29;100617.03;20744484;28;20491;-69
2021/04/18 16:59:45;;;;;;;13.43;8.70;;;;;;;11.40;64.00;100628.03;20734340;28;20049;-70
2021/04/18 17:09:45;;;;;;;13.60;8.57;;;;;;;11.22;64.83;100636.88;20731561;28;20049;-70
2021/04/18 17:19:46;;;;;;;15.13;10.30;;;;;;;11.16;65.63;100645.91;20729033;28;20050;-70
2021/04/18 17:29:47;;;;;;;15.13;8.80;;;;;;;11.01;66.21;100642.31;20725727;28;21373;-70
2021/04/18 17:39:48;;;;;;;15.18;9.27;;;;;;;10.99;65.56;100635.44;20721918;28;20062;-70
2021/04/18 17:49:49;;;;;;;14.63;9.15;;;;;;;11.02;65.88;100654.47;20720268;28;20057;-69
2021/04/18 17:59:50;;;;;;;18.33;9.00;;;;;;;10.76;67.85;100654.13;20722697;28;20053;-69
2021/04/18 18:09:51;;;;;;;15.15;9.25;;;;;;;10.67;67.72;100658.03;20729926;28;20556;-70
2021/04/18 18:19:52;;;;;;;18.60;11.38;;;;;;;10.54;69.50;100651.75;20734163;28;20049;-70
2021/04/18 18:29:53;;;;;;;19.10;10.63;;;;;;;10.46;69.71;100669.59;20732409;28;20042;-70
2021/04/18 18:39:55;;;;;;;19.02;11.25;;;;;;;10.28;71.20;100669.56;20733222;28;20058;-71
2021/04/18 18:49:57;;;;;;;14.75;8.20;;;;;;;10.09;74.39;100670.50;20733544;28;20054;-70
2021/04/18 18:59:57;;;;;;;13.60;7.72;;;;;;;9.77;76.38;100667.63;20729955;28;20092;-69
2021/04/18 19:09:58;;;;;;;13.15;7.85;;;;;;;9.43;77.82;100676.19;20729473;28;20050;-70
2021/04/18 19:20:05;;;;;;;13.90;7.85;;;;;;;9.10;80.32;100684.66;20726436;28;20038;-69
2021/04/18 19:30:08;;;;;;;12.50;8.02;;;;;;;8.86;82.02;100689.16;20729659;28;20053;-69
2021/04/18 19:40:10;;;;;;;15.82;9.55;;;;;;;8.65;82.19;100687.47;20752035;28;20093;-69
2021/04/18 19:50:13;;;;;;;16.13;10.10;;;;;;;8.32;83.75;100684.50;20739892;28;20100;-70
2021/04/18 20:00:14;;;;;;;13.25;8.55;;;;;;;8.14;84.21;100692.09;20725567;28;20449;-69
2021/04/18 20:10:18;;;;;;;18.83;10.45;;;;;;;8.08;84.40;100681.91;20708457;28;20688;-69
2021/04/18 20:20:19;;;;;;;20.27;10.52;;;;;;;8.08;85.13;100688.88;20713672;28;20086;-69
2021/04/18 20:30:23;;;;;;;17.40;10.25;;;;;;;8.07;84.86;100684.59;20714562;28;20426;-69
2021/04/18 20:40:24;;;;;;;16.80;9.23;;;;;;;7.94;85.40;100685.97;20728957;28;20049;-69
2021/04/18 20:50:25;;;;;;;14.00;9.30;;;;;;;8.08;85.06;100687.13;20730545;28;20119;-69
2021/04/18 21:00:29;;;;;;;17.50;10.18;;;;;;;8.22;84.88;100686.59;20732226;28;20406;-70
2021/04/18 21:10:30;;;;;;;16.70;9.27;;;;;;;8.19;84.75;100681.47;20727465;28;20045;-68
2021/04/18 21:20:31;;;;;;;15.48;9.30;;;;;;;8.23;84.40;100677.81;20719851;28;20050;-68
2021/04/18 21:30:32;;;;;;;18.52;10.27;;;;;;;8.33;83.10;100673.16;20724504;28;20100;-68
2021/04/18 21:40:34;;;;;;;20.67;10.25;;;;;;;8.25;83.39;100670.81;20739843;28;20053;-69
2021/04/18 21:50:35;;;;;;;16.52;9.35;;;;;;;8.12;83.24;100664.41;20739414;28;20050;-69
2021/04/18 22:00:36;;;;;;;14.85;8.57;;;;;;;8.13;82.65;100668.69;20738142;28;20461;-69
2021/04/18 22:10:37;;;;;;;18.30;10.20;;;;;;;8.16;83.26;100677.25;20715248;23;20065;-70
2021/04/18 22:20:38;;;;;;;15.38;9.00;;;;;;;8.05;83.67;100682.03;20658659;28;20494;-70
2021/04/18 22:30:40;;;;;;;17.98;9.73;;;;;;;8.00;84.28;100670.09;20657837;28;20490;-69
2021/04/18 22:40:41;;;;;;;15.85;10.15;;;;;;;7.90;84.77;100664.38;20732828;28;20493;-69
2021/04/18 22:50:42;;;;;;;18.63;10.07;;;;;;;7.79;85.04;100650.91;20804938;28;20096;-69
2021/04/18 23:00:44;;;;;;;20.42;10.43;;;;;;;7.73;85.94;100657.22;20786263;28;20050;-70
2021/04/18 23:10:44;;;;;;;15.48;9.95;;;;;;;7.61;87.22;100646.44;20756633;28;20046;-71
2021/04/18 23:20:45;;;;;;;17.35;10.07;;;;;;;7.56;86.80;100637.94;20742114;28;20061;-72
2021/04/18 23:30:47;;;;;;;16.45;10.23;;;;;;;7.45;86.91;100620.13;20754852;28;20046;-70
2021/04/18 23:40:47;;;;;;;17.00;10.20;;;;;;;7.29;87.54;100624.19;20738468;28;20049;-71
2021/04/18 23:50:48;;;;;;;15.43;9.52;;;;;;;7.10;88.88;100608.41;20728749;28;20053;-69
